IDPK1: Verdigris River, Independence

Data processed at Sun Apr 30 2017 23:19


All information presented herein is the property of the government of the United States of America and may be revised or deleted at any time without prior notice.
Dissemination of this information without the expressed written consent of the Public Affairs Office, Tulsa District U.S. Army Corps of Engineers is strictly prohibited.
These data are gathered electronically and, as presented, have not undergone any form of quality control. These data are not guaranteed to be valid or correct.
Go to home page.
Go to station list.
Go to station map.

Upstream stations:

Downstream station:
Previous Day
Next Day
Current Day
    
SHEF ID:       IDPK1     VERDIGRIS R AT INDEPENDENCE, KS
STATION TYPE:  

               PRECIP     STAGE  RIV-FLOW  BAT-LOAD
                   in        ft       cfs      volt
              Ccp-Rev   Ccp-Rev   Ccp-Rev   Ccp-Rev
(US/Central)
04/30 00:00      0.08     29.28      ----     12.13
04/30 01:00      0.21     30.52      ----     12.07
04/30 02:00      0.06     31.53      ----     12.13
04/30 03:00      0.00     32.31     25400     11.89
04/30 04:00      0.00     32.88     25900     12.07
04/30 05:00      0.00     33.31     26200     11.77
04/30 06:00      0.00     33.59     26400     12.13
04/30 07:00      0.04     33.75     26600     11.95
04/30 08:00      0.03     33.90     26700     11.89
04/30 09:00      0.02     33.95     26700     11.89
04/30 10:00      0.00     33.95     26700     12.01
04/30 11:00      0.00     33.98     26800     12.60
04/30 12:00      0.00     33.91     26700     12.54
04/30 13:00      0.00     33.80     26600     12.77
04/30 14:00      0.00     33.63     26500     12.89
04/30 15:00      0.00     33.38     26300     13.12
04/30 16:00      0.00     33.15     26100     13.18
04/30 17:00      0.00     32.93     25900     12.60
04/30 18:00      0.00     32.73     25700     12.77
04/30 19:00      0.04     32.51     25500     12.36
04/30 20:00      0.00     32.33     25400     12.24
04/30 21:00      0.01     32.17     25300     12.07
04/30 22:00      0.02     32.03     25100     12.01
04/30 23:00      0.10     31.92     25100     12.01